sensor_id;sensor_type;location;lat;lon;timestamp;pressure;altitude;pressure_sealevel;temperature;humidity
5966;BME280;3009;43.224;27.976;2023-03-01T00:00:03;101435.13;;;3.70;100.00
5966;BME280;3009;43.224;27.976;2023-03-01T00:02:34;101428.44;;;3.68;100.00
5966;BME280;3009;43.224;27.976;2023-03-01T00:05:04;101429.38;;;3.73;100.00
5966;BME280;3009;43.224;27.976;2023-03-01T00:07:34;101427.75;;;3.72;100.00
5966;BME280;3009;43.224;27.976;2023-03-01T00:10:06;101434.66;;;3.73;100.00
5966;BME280;3009;43.224;27.976;2023-03-01T00:12:35;101442.72;;;3.79;100.00
5966;BME280;3009;43.224;27.976;2023-03-01T00:15:04;101439.97;;;3.73;100.00
5966;BME280;3009;43.224;27.976;2023-03-01T00:17:33;101434.56;;;3.68;100.00
5966;BME280;3009;43.224;27.976;2023-03-01T00:20:01;101437.78;;;3.70;100.00
5966;BME280;3009;43.224;27.976;2023-03-01T00:22:29;101437.47;;;3.67;100.00
5966;BME280;3009;43.224;27.976;2023-03-01T00:24:58;101448.41;;;3.70;100.00
5966;BME280;3009;43.224;27.976;2023-03-01T00:27:28;101434.81;;;3.67;100.00
5966;BME280;3009;43.224;27.976;2023-03-01T00:29:56;101428.69;;;3.66;100.00
5966;BME280;3009;43.224;27.976;2023-03-01T00:32:24;101427.06;;;3.65;100.00
5966;BME280;3009;43.224;27.976;2023-03-01T00:34:53;101425.34;;;3.59;100.00
5966;BME280;3009;43.224;27.976;2023-03-01T00:37:22;101425.13;;;3.61;100.00
5966;BME280;3009;43.224;27.976;2023-03-01T00:39:50;101427.69;;;3.55;100.00
5966;BME280;3009;43.224;27.976;2023-03-01T00:42:19;101419.16;;;3.53;100.00
5966;BME280;3009;43.224;27.976;2023-03-01T00:44:50;101406.94;;;3.52;100.00
5966;BME280;3009;43.224;27.976;2023-03-01T00:47:18;101401.78;;;3.46;100.00
5966;BME280;3009;43.224;27.976;2023-03-01T00:49:47;101398.53;;;3.44;100.00
5966;BME280;3009;43.224;27.976;2023-03-01T00:52:16;101405.09;;;3.41;100.00
5966;BME280;3009;43.224;27.976;2023-03-01T00:54:44;101404.66;;;3.44;100.00
5966;BME280;3009;43.224;27.976;2023-03-01T00:57:13;101409.97;;;3.44;100.00
5966;BME280;3009;43.224;27.976;2023-03-01T00:59:41;101396.59;;;3.39;100.00
5966;BME280;3009;43.224;27.976;2023-03-01T01:02:11;101386.22;;;3.37;100.00
5966;BME280;3009;43.224;27.976;2023-03-01T01:04:39;101388.63;;;3.39;100.00
5966;BME280;3009;43.224;27.976;2023-03-01T01:07:08;101381.47;;;3.40;100.00
5966;BME280;3009;43.224;27.976;2023-03-01T01:09:36;101375.06;;;3.35;100.00
5966;BME280;3009;43.224;27.976;2023-03-01T01:12:05;101387.25;;;3.36;100.00
5966;BME280;3009;43.224;27.976;2023-03-01T01:14:34;101383.00;;;3.35;100.00
5966;BME280;3009;43.224;27.976;2023-03-01T01:17:02;101366.88;;;3.37;100.00
5966;BME280;3009;43.224;27.976;2023-03-01T01:19:32;101379.88;;;3.39;100.00
5966;BME280;3009;43.224;27.976;2023-03-01T01:22:01;101371.69;;;3.40;100.00
5966;BME280;3009;43.224;27.976;2023-03-01T01:24:30;101373.88;;;3.43;100.00
5966;BME280;3009;43.224;27.976;2023-03-01T01:26:58;101382.06;;;3.42;100.00
5966;BME280;3009;43.224;27.976;2023-03-01T01:29:27;101371.47;;;3.42;100.00
5966;BME280;3009;43.224;27.976;2023-03-01T01:31:55;101366.41;;;3.40;100.00
5966;BME280;3009;43.224;27.976;2023-03-01T01:34:23;101374.69;;;3.44;100.00
5966;BME280;3009;43.224;27.976;2023-03-01T01:36:53;101380.56;;;3.46;100.00
5966;BME280;3009;43.224;27.976;2023-03-01T01:39:22;101376.19;;;3.40;100.00
5966;BME280;3009;43.224;27.976;2023-03-01T01:41:51;101359.25;;;3.41;100.00
5966;BME280;3009;43.224;27.976;2023-03-01T01:44:21;101362.44;;;3.43;100.00
5966;BME280;3009;43.224;27.976;2023-03-01T01:46:53;101358.44;;;3.40;100.00
5966;BME280;3009;43.224;27.976;2023-03-01T01:49:30;101350.34;;;3.47;100.00
5966;BME280;3009;43.224;27.976;2023-03-01T01:52:07;101373.28;;;3.41;100.00
5966;BME280;3009;43.224;27.976;2023-03-01T01:54:42;101367.31;;;3.46;100.00
5966;BME280;3009;43.224;27.976;2023-03-01T01:57:14;101354.38;;;3.49;100.00
5966;BME280;3009;43.224;27.976;2023-03-01T01:59:47;101367.66;;;3.37;100.00
5966;BME280;3009;43.224;27.976;2023-03-01T02:02:18;101363.97;;;3.39;100.00
5966;BME280;3009;43.224;27.976;2023-03-01T02:04:48;101354.41;;;3.37;100.00
5966;BME280;3009;43.224;27.976;2023-03-01T02:07:21;101356.25;;;3.37;100.00
5966;BME280;3009;43.224;27.976;2023-03-01T02:09:52;101360.72;;;3.48;100.00
5966;BME280;3009;43.224;27.976;2023-03-01T02:12:23;101343.56;;;3.39;100.00
5966;BME280;3009;43.224;27.976;2023-03-01T02:14:52;101340.84;;;3.34;100.00
5966;BME280;3009;43.224;27.976;2023-03-01T02:17:21;101360.03;;;3.41;100.00
5966;BME280;3009;43.224;27.976;2023-03-01T02:19:59;101351.75;;;3.37;100.00
5966;BME280;3009;43.224;27.976;2023-03-01T02:22:36;101364.22;;;3.37;100.00
5966;BME280;3009;43.224;27.976;2023-03-01T02:25:27;101359.94;;;3.36;100.00
5966;BME280;3009;43.224;27.976;2023-03-01T02:28:01;101372.97;;;3.37;100.00
5966;BME280;3009;43.224;27.976;2023-03-01T02:30:36;101366.41;;;3.40;100.00
5966;BME280;3009;43.224;27.976;2023-03-01T02:33:26;101373.44;;;3.34;100.00
5966;BME280;3009;43.224;27.976;2023-03-01T02:35:54;101365.50;;;3.34;100.00
5966;BME280;3009;43.224;27.976;2023-03-01T02:38:23;101370.78;;;3.34;100.00
5966;BME280;3009;43.224;27.976;2023-03-01T02:40:52;101364.78;;;3.39;100.00
5966;BME280;3009;43.224;27.976;2023-03-01T02:43:25;101372.03;;;3.44;100.00
5966;BME280;3009;43.224;27.976;2023-03-01T02:45:58;101381.25;;;3.41;100.00
5966;BME280;3009;43.224;27.976;2023-03-01T02:48:27;101378.59;;;3.41;100.00
5966;BME280;3009;43.224;27.976;2023-03-01T02:51:04;101381.47;;;3.40;100.00
5966;BME280;3009;43.224;27.976;2023-03-01T02:53:39;101381.94;;;3.36;100.00
5966;BME280;3009;43.224;27.976;2023-03-01T02:56:10;101389.44;;;3.40;100.00
5966;BME280;3009;43.224;27.976;2023-03-01T02:58:40;101392.09;;;3.40;100.00
5966;BME280;3009;43.224;27.976;2023-03-01T03:01:13;101386.00;;;3.39;100.00
5966;BME280;3009;43.224;27.976;2023-03-01T03:03:43;101393.72;;;3.41;100.00
5966;BME280;3009;43.224;27.976;2023-03-01T03:06:12;101394.75;;;3.40;100.00
5966;BME280;3009;43.224;27.976;2023-03-01T03:08:40;101396.34;;;3.41;100.00
5966;BME280;3009;43.224;27.976;2023-03-01T03:11:09;101396.47;;;3.46;100.00
5966;BME280;3009;43.224;27.976;2023-03-01T03:13:37;101393.22;;;3.44;100.00
5966;BME280;3009;43.224;27.976;2023-03-01T03:16:16;101396.56;;;3.51;100.00
5966;BME280;3009;43.224;27.976;2023-03-01T03:18:44;101396.34;;;3.52;100.00
5966;BME280;3009;43.224;27.976;2023-03-01T03:21:13;101389.88;;;3.48;100.00
5966;BME280;3009;43.224;27.976;2023-03-01T03:23:42;101386.53;;;3.41;100.00
5966;BME280;3009;43.224;27.976;2023-03-01T03:26:10;101396.28;;;3.35;100.00
5966;BME280;3009;43.224;27.976;2023-03-01T03:28:41;101401.66;;;3.41;100.00
5966;BME280;3009;43.224;27.976;2023-03-01T03:31:10;101392.44;;;3.43;100.00
5966;BME280;3009;43.224;27.976;2023-03-01T03:33:40;101386.31;;;3.43;100.00
5966;BME280;3009;43.224;27.976;2023-03-01T03:36:08;101383.00;;;3.35;100.00
5966;BME280;3009;43.224;27.976;2023-03-01T03:38:40;101388.88;;;3.37;100.00
5966;BME280;3009;43.224;27.976;2023-03-01T03:41:08;101395.22;;;3.36;100.00
5966;BME280;3009;43.224;27.976;2023-03-01T03:43:38;101400.03;;;3.40;100.00
5966;BME280;3009;43.224;27.976;2023-03-01T03:46:10;101389.44;;;3.40;100.00
5966;BME280;3009;43.224;27.976;2023-03-01T03:48:41;101386.22;;;3.37;100.00
5966;BME280;3009;43.224;27.976;2023-03-01T03:51:11;101375.06;;;3.35;100.00
5966;BME280;3009;43.224;27.976;2023-03-01T03:53:40;101376.66;;;3.36;100.00
5966;BME280;3009;43.224;27.976;2023-03-01T03:56:09;101370.56;;;3.36;100.00
5966;BME280;3009;43.224;27.976;2023-03-01T03:58:38;101359.38;;;3.34;100.00
5966;BME280;3009;43.224;27.976;2023-03-01T04:01:06;101361.34;;;3.39;100.00
5966;BME280;3009;43.224;27.976;2023-03-01T04:03:34;101367.44;;;3.39;100.00
5966;BME280;3009;43.224;27.976;2023-03-01T04:06:05;101357.38;;;3.41;100.00
5966;BME280;3009;43.224;27.976;2023-03-01T04:08:33;101349.19;;;3.43;100.00
5966;BME280;3009;43.224;27.976;2023-03-01T04:11:03;101344.72;;;3.43;100.00
5966;BME280;3009;43.224;27.976;2023-03-01T04:13:46;101346.66;;;3.48;100.00
5966;BME280;3009;43.224;27.976;2023-03-01T04:16:14;101344.47;;;3.45;100.00
5966;BME280;3009;43.224;27.976;2023-03-01T04:18:43;101341.91;;;3.50;100.00
5966;BME280;3009;43.224;27.976;2023-03-01T04:21:13;101339.19;;;3.45;100.00
5966;BME280;3009;43.224;27.976;2023-03-01T04:23:42;101344.81;;;3.48;100.00
5966;BME280;3009;43.224;27.976;2023-03-01T04:26:10;101336.53;;;3.45;100.00
5966;BME280;3009;43.224;27.976;2023-03-01T04:28:40;101346.91;;;3.46;100.00
5966;BME280;3009;43.224;27.976;2023-03-01T04:31:13;101350.22;;;3.53;100.00
5966;BME280;3009;43.224;27.976;2023-03-01T04:33:44;101345.94;;;3.52;100.00
5966;BME280;3009;43.224;27.976;2023-03-01T04:36:15;101358.50;;;3.57;100.00
5966;BME280;3009;43.224;27.976;2023-03-01T04:38:44;101356.22;;;3.49;100.00
5966;BME280;3009;43.224;27.976;2023-03-01T04:41:15;101359.53;;;3.56;100.00
5966;BME280;3009;43.224;27.976;2023-03-01T04:43:44;101351.16;;;3.47;100.00
5966;BME280;3009;43.224;27.976;2023-03-01T04:46:14;101362.78;;;3.58;100.00
5966;BME280;3009;43.224;27.976;2023-03-01T04:48:43;101356.88;;;3.56;100.00
5966;BME280;3009;43.224;27.976;2023-03-01T04:51:15;101354.69;;;3.53;100.00
5966;BME280;3009;43.224;27.976;2023-03-01T04:53:45;101361.72;;;3.59;100.00
5966;BME280;3009;43.224;27.976;2023-03-01T04:56:14;101361.72;;;3.59;100.00
5966;BME280;3009;43.224;27.976;2023-03-01T04:58:42;101350.88;;;3.61;100.00
5966;BME280;3009;43.224;27.976;2023-03-01T05:01:12;101348.13;;;3.55;100.00
5966;BME280;3009;43.224;27.976;2023-03-01T05:03:43;101342.91;;;3.61;100.00
5966;BME280;3009;43.224;27.976;2023-03-01T05:06:12;101343.63;;;3.56;100.00
5966;BME280;3009;43.224;27.976;2023-03-01T05:08:43;101349.94;;;3.67;100.00
5966;BME280;3009;43.224;27.976;2023-03-01T05:11:12;101346.28;;;3.56;100.00
5966;BME280;3009;43.224;27.976;2023-03-01T05:13:41;101335.59;;;3.51;100.00
5966;BME280;3009;43.224;27.976;2023-03-01T05:16:09;101348.44;;;3.59;100.00
5966;BME280;3009;43.224;27.976;2023-03-01T05:18:39;101347.97;;;3.62;100.00
5966;BME280;3009;43.224;27.976;2023-03-01T05:21:11;101359.53;;;3.56;100.00
5966;BME280;3009;43.224;27.976;2023-03-01T05:23:44;101349.41;;;3.53;100.00
5966;BME280;3009;43.224;27.976;2023-03-01T05:26:14;101354.13;;;3.51;100.00
5966;BME280;3009;43.224;27.976;2023-03-01T05:28:54;101364.72;;;3.63;100.00
5966;BME280;3009;43.224;27.976;2023-03-01T05:31:26;101349.31;;;3.48;100.00
5966;BME280;3009;43.224;27.976;2023-03-01T05:33:54;101340.16;;;3.55;100.00
5966;BME280;3009;43.224;27.976;2023-03-01T05:36:23;101355.19;;;3.50;100.00
5966;BME280;3009;43.224;27.976;2023-03-01T05:38:53;101349.41;;;3.53;100.00
5966;BME280;3009;43.224;27.976;2023-03-01T05:41:22;101357.25;;;3.48;100.00
5966;BME280;3009;43.224;27.976;2023-03-01T05:43:51;101355.84;;;3.57;100.00
5966;BME280;3009;43.224;27.976;2023-03-01T05:46:19;101362.19;;;3.56;100.00
5966;BME280;3009;43.224;27.976;2023-03-01T05:48:49;101355.53;;;3.53;100.00
5966;BME280;3009;43.224;27.976;2023-03-01T05:51:17;101359.16;;;3.64;100.00
5966;BME280;3009;43.224;27.976;2023-03-01T05:53:46;101350.88;;;3.61;100.00
5966;BME280;3009;43.224;27.976;2023-03-01T05:56:15;101355.94;;;3.62;100.00
5966;BME280;3009;43.224;27.976;2023-03-01T05:58:44;101344.75;;;3.60;100.00
5966;BME280;3009;43.224;27.976;2023-03-01T06:01:13;101355.38;;;3.60;100.00
5966;BME280;3009;43.224;27.976;2023-03-01T06:03:42;101352.53;;;3.79;100.00
5966;BME280;3009;43.224;27.976;2023-03-01T06:06:10;101353.38;;;3.67;100.00
5966;BME280;3009;43.224;27.976;2023-03-01T06:08:39;101359.16;;;3.64;100.00
5966;BME280;3009;43.224;27.976;2023-03-01T06:11:07;101359.88;;;3.60;100.00
5966;BME280;3009;43.224;27.976;2023-03-01T06:13:37;101359.06;;;3.59;100.00
5966;BME280;3009;43.224;27.976;2023-03-01T06:16:07;101349.50;;;3.58;100.00
5966;BME280;3009;43.224;27.976;2023-03-01T06:18:36;101360.69;;;3.60;100.00
5966;BME280;3009;43.224;27.976;2023-03-01T06:21:05;101367.16;;;3.81;100.00
5966;BME280;3009;43.224;27.976;2023-03-01T06:23:34;101362.50;;;3.71;100.00
5966;BME280;3009;43.224;27.976;2023-03-01T06:26:05;101363.53;;;3.70;100.00
5966;BME280;3009;43.224;27.976;2023-03-01T06:28:34;101360.88;;;3.70;100.00
5966;BME280;3009;43.224;27.976;2023-03-01T06:31:04;101352.53;;;3.79;100.00
5966;BME280;3009;43.224;27.976;2023-03-01T06:33:35;101355.03;;;3.85;100.00
5966;BME280;3009;43.224;27.976;2023-03-01T06:36:04;101352.63;;;3.84;100.00
5966;BME280;3009;43.224;27.976;2023-03-01T06:38:32;101350.81;;;3.72;100.00
5966;BME280;3009;43.224;27.976;2023-03-01T06:41:01;101355.09;;;3.73;100.00
5966;BME280;3009;43.224;27.976;2023-03-01T06:43:30;101349.25;;;3.88;100.00
5966;BME280;3009;43.224;27.976;2023-03-01T06:45:58;101353.59;;;3.95;100.00
5966;BME280;3009;43.224;27.976;2023-03-01T06:48:28;101350.00;;;4.01;100.00
5966;BME280;3009;43.224;27.976;2023-03-01T06:50:58;101350.53;;;3.86;100.00
5966;BME280;3009;43.224;27.976;2023-03-01T06:53:27;101351.25;;;3.81;100.00
5966;BME280;3009;43.224;27.976;2023-03-01T06:55:56;101356.56;;;3.81;100.00
5966;BME280;3009;43.224;27.976;2023-03-01T06:58:26;101347.78;;;3.81;100.00
5966;BME280;3009;43.224;27.976;2023-03-01T07:00:55;101346.84;;;3.87;100.00
5966;BME280;3009;43.224;27.976;2023-03-01T07:03:23;101358.13;;;3.94;100.00
5966;BME280;3009;43.224;27.976;2023-03-01T07:05:53;101358.00;;;3.89;100.00
5966;BME280;3009;43.224;27.976;2023-03-01T07:08:21;101358.00;;;3.89;100.00
5966;BME280;3009;43.224;27.976;2023-03-01T07:10:55;101352.63;;;3.84;100.00
5966;BME280;3009;43.224;27.976;2023-03-01T07:13:23;101362.84;;;3.92;100.00
5966;BME280;3009;43.224;27.976;2023-03-01T07:15:52;101346.31;;;4.02;100.00
5966;BME280;3009;43.224;27.976;2023-03-01T07:18:20;101351.00;;;3.83;100.00
5966;BME280;3009;43.224;27.976;2023-03-01T07:20:48;101354.22;;;3.85;100.00
5966;BME280;3009;43.224;27.976;2023-03-01T07:23:18;101357.69;;;3.85;100.00
5966;BME280;3009;43.224;27.976;2023-03-01T07:25:54;101358.84;;;3.89;100.00
5966;BME280;3009;43.224;27.976;2023-03-01T07:28:23;101351.31;;;3.86;100.00
5966;BME280;3009;43.224;27.976;2023-03-01T07:30:51;101366.06;;;3.94;100.00
5966;BME280;3009;43.224;27.976;2023-03-01T07:33:20;101365.25;;;3.94;100.00
5966;BME280;3009;43.224;27.976;2023-03-01T07:35:48;101373.63;;;4.02;100.00
5966;BME280;3009;43.224;27.976;2023-03-01T07:38:25;101364.22;;;3.95;100.00
5966;BME280;3009;43.224;27.976;2023-03-01T07:40:53;101368.72;;;3.94;100.00
5966;BME280;3009;43.224;27.976;2023-03-01T07:43:22;101365.44;;;4.04;100.00
5966;BME280;3009;43.224;27.976;2023-03-01T07:45:50;101359.09;;;4.05;100.00
5966;BME280;3009;43.224;27.976;2023-03-01T07:48:19;101351.13;;;4.05;100.00
5966;BME280;3009;43.224;27.976;2023-03-01T07:50:47;101348.28;;;3.95;100.00
5966;BME280;3009;43.224;27.976;2023-03-01T07:53:15;101351.19;;;3.93;100.00
5966;BME280;3009;43.224;27.976;2023-03-01T07:55:45;101367.72;;;3.83;100.00
5966;BME280;3009;43.224;27.976;2023-03-01T07:58:16;101352.47;;;3.90;100.00
5966;BME280;3009;43.224;27.976;2023-03-01T08:00:44;101355.22;;;3.96;100.00
5966;BME280;3009;43.224;27.976;2023-03-01T08:03:12;101349.75;;;4.02;100.00
5966;BME280;3009;43.224;27.976;2023-03-01T08:05:40;101344.84;;;4.11;100.00
5966;BME280;3009;43.224;27.976;2023-03-01T08:08:09;101354.28;;;4.19;100.00
5966;BME280;3009;43.224;27.976;2023-03-01T08:10:37;101357.53;;;4.09;100.00
5966;BME280;3009;43.224;27.976;2023-03-01T08:13:07;101354.81;;;4.04;100.00
5966;BME280;3009;43.224;27.976;2023-03-01T08:15:35;101356.44;;;4.22;100.00
5966;BME280;3009;43.224;27.976;2023-03-01T08:18:04;101349.28;;;4.39;100.00
5966;BME280;3009;43.224;27.976;2023-03-01T08:20:33;101355.63;;;4.38;100.00
5966;BME280;3009;43.224;27.976;2023-03-01T08:23:01;101341.41;;;4.44;100.00
5966;BME280;3009;43.224;27.976;2023-03-01T08:25:30;101345.50;;;4.35;100.00
5966;BME280;3009;43.224;27.976;2023-03-01T08:27:58;101348.47;;;4.39;100.00
5966;BME280;3009;43.224;27.976;2023-03-01T08:30:28;101338.91;;;4.55;100.00
5966;BME280;3009;43.224;27.976;2023-03-01T08:32:56;101347.16;;;4.58;100.00
5966;BME280;3009;43.224;27.976;2023-03-01T08:35:25;101335.16;;;4.56;100.00
5966;BME280;3009;43.224;27.976;2023-03-01T08:37:53;101341.91;;;4.81;100.00
5966;BME280;3009;43.224;27.976;2023-03-01T08:40:22;101346.88;;;4.94;100.00
5966;BME280;3009;43.224;27.976;2023-03-01T08:42:50;101359.41;;;4.99;100.00
5966;BME280;3009;43.224;27.976;2023-03-01T08:45:19;101345.81;;;4.95;100.00
5966;BME280;3009;43.224;27.976;2023-03-01T08:47:52;101343.88;;;4.68;100.00
5966;BME280;3009;43.224;27.976;2023-03-01T08:50:20;101358.31;;;4.94;100.00
5966;BME280;3009;43.224;27.976;2023-03-01T08:52:49;101347.66;;;4.94;100.00
5966;BME280;3009;43.224;27.976;2023-03-01T08:55:18;101361.84;;;5.00;99.92
5966;BME280;3009;43.224;27.976;2023-03-01T08:57:46;101348.84;;;4.82;99.40
5966;BME280;3009;43.224;27.976;2023-03-01T09:00:15;101345.34;;;4.59;100.00
5966;BME280;3009;43.224;27.976;2023-03-01T09:02:44;101348.19;;;4.74;100.00
5966;BME280;3009;43.224;27.976;2023-03-01T09:05:14;101338.66;;;4.56;100.00
5966;BME280;3009;43.224;27.976;2023-03-01T09:07:45;101336.25;;;4.77;100.00
5966;BME280;3009;43.224;27.976;2023-03-01T09:10:14;101346.03;;;4.71;100.00
5966;BME280;3009;43.224;27.976;2023-03-01T09:12:42;101337.38;;;4.59;100.00
5966;BME280;3009;43.224;27.976;2023-03-01T09:15:10;101338.38;;;4.75;100.00
5966;BME280;3009;43.224;27.976;2023-03-01T09:17:39;101315.28;;;4.97;100.00
5966;BME280;3009;43.224;27.976;2023-03-01T09:20:08;101321.88;;;5.39;99.58
5966;BME280;3009;43.224;27.976;2023-03-01T09:22:38;101326.28;;;5.06;99.82
5966;BME280;3009;43.224;27.976;2023-03-01T09:25:07;101329.13;;;4.77;100.00
5966;BME280;3009;43.224;27.976;2023-03-01T09:27:36;101333.63;;;4.99;100.00
5966;BME280;3009;43.224;27.976;2023-03-01T09:30:05;101332.75;;;4.71;100.00
5966;BME280;3009;43.224;27.976;2023-03-01T09:32:34;101343.53;;;4.65;100.00
5966;BME280;3009;43.224;27.976;2023-03-01T09:35:03;101346.09;;;4.76;100.00
5966;BME280;3009;43.224;27.976;2023-03-01T09:37:33;101340.50;;;5.17;100.00
5966;BME280;3009;43.224;27.976;2023-03-01T09:40:04;101334.88;;;5.13;98.76
5966;BME280;3009;43.224;27.976;2023-03-01T09:42:34;101331.97;;;5.15;97.74
5966;BME280;3009;43.224;27.976;2023-03-01T09:45:05;101344.94;;;5.33;98.34
5966;BME280;3009;43.224;27.976;2023-03-01T09:47:35;101328.94;;;5.28;96.08
5966;BME280;3009;43.224;27.976;2023-03-01T09:50:06;101329.75;;;5.29;95.78
5966;BME280;3009;43.224;27.976;2023-03-01T09:52:40;101330.00;;;5.05;95.53
5966;BME280;3009;43.224;27.976;2023-03-01T09:55:14;101333.03;;;5.14;96.73
5966;BME280;3009;43.224;27.976;2023-03-01T09:57:47;101329.81;;;4.90;96.87
5966;BME280;3009;43.224;27.976;2023-03-01T10:00:30;101327.97;;;5.12;95.77
5966;BME280;3009;43.224;27.976;2023-03-01T10:03:10;101324.00;;;5.15;94.82
5966;BME280;3009;43.224;27.976;2023-03-01T10:05:49;101326.28;;;5.06;95.54
5966;BME280;3009;43.224;27.976;2023-03-01T10:08:36;101322.50;;;5.02;92.07
5966;BME280;3009;43.224;27.976;2023-03-01T10:11:19;101313.16;;;5.00;90.96
5966;BME280;3009;43.224;27.976;2023-03-01T10:13:57;101311.81;;;4.75;91.29
5966;BME280;3009;43.224;27.976;2023-03-01T10:16:37;101311.50;;;5.15;91.14
5966;BME280;3009;43.224;27.976;2023-03-01T10:19:12;101307.59;;;5.01;89.06
5966;BME280;3009;43.224;27.976;2023-03-01T10:21:45;101315.53;;;5.18;88.69
5966;BME280;3009;43.224;27.976;2023-03-01T10:24:16;101317.03;;;5.09;87.89
5966;BME280;3009;43.224;27.976;2023-03-01T10:26:54;101305.94;;;5.17;88.78
5966;BME280;3009;43.224;27.976;2023-03-01T10:29:26;101286.59;;;5.22;87.72
5966;BME280;3009;43.224;27.976;2023-03-01T10:31:57;101294.19;;;5.35;87.78
5966;BME280;3009;43.224;27.976;2023-03-01T10:34:28;101286.09;;;5.25;88.36
5966;BME280;3009;43.224;27.976;2023-03-01T10:37:01;101291.34;;;5.20;88.45
5966;BME280;3009;43.224;27.976;2023-03-01T10:39:36;101289.31;;;5.27;89.39
5966;BME280;3009;43.224;27.976;2023-03-01T10:42:22;101287.16;;;5.02;90.38
5966;BME280;3009;43.224;27.976;2023-03-01T10:44:53;101283.94;;;5.00;92.30
5966;BME280;3009;43.224;27.976;2023-03-01T10:47:23;101272.88;;;5.08;91.90
5966;BME280;3009;43.224;27.976;2023-03-01T10:49:55;101280.19;;;4.95;94.90
5966;BME280;3009;43.224;27.976;2023-03-01T10:52:26;101258.44;;;4.99;94.66
5966;BME280;3009;43.224;27.976;2023-03-01T10:54:57;101263.44;;;5.22;93.59
5966;BME280;3009;43.224;27.976;2023-03-01T10:57:34;101268.94;;;5.10;92.69
5966;BME280;3009;43.224;27.976;2023-03-01T11:00:21;101272.63;;;5.09;94.40
5966;BME280;3009;43.224;27.976;2023-03-01T11:03:02;101273.50;;;4.93;94.91
5966;BME280;3009;43.224;27.976;2023-03-01T11:05:31;101274.06;;;4.73;95.69
5966;BME280;3009;43.224;27.976;2023-03-01T11:08:01;101261.19;;;4.87;96.16
5966;BME280;3009;43.224;27.976;2023-03-01T11:10:33;101264.03;;;5.02;95.07
5966;BME280;3009;43.224;27.976;2023-03-01T11:13:09;101254.59;;;4.89;94.97
5966;BME280;3009;43.224;27.976;2023-03-01T11:15:42;101250.25;;;5.05;95.19
5966;BME280;3009;43.224;27.976;2023-03-01T11:18:22;101267.09;;;5.16;94.62
5966;BME280;3009;43.224;27.976;2023-03-01T11:21:10;101251.97;;;5.17;94.02
5966;BME280;3009;43.224;27.976;2023-03-01T11:23:39;101236.16;;;4.83;94.89
5966;BME280;3009;43.224;27.976;2023-03-01T11:26:10;101224.50;;;4.84;94.46
5966;BME280;3009;43.224;27.976;2023-03-01T11:28:42;101228.06;;;5.17;95.11
5966;BME280;3009;43.224;27.976;2023-03-01T11:31:14;101214.16;;;5.09;92.65
5966;BME280;3009;43.224;27.976;2023-03-01T11:33:47;101212.50;;;5.03;91.64
5966;BME280;3009;43.224;27.976;2023-03-01T11:36:26;101219.06;;;5.23;91.57
5966;BME280;3009;43.224;27.976;2023-03-01T11:38:58;101218.22;;;5.49;90.44
5966;BME280;3009;43.224;27.976;2023-03-01T11:41:31;101216.59;;;5.43;89.98
5966;BME280;3009;43.224;27.976;2023-03-01T11:44:09;101206.00;;;5.48;89.63
5966;BME280;3009;43.224;27.976;2023-03-01T11:46:51;101210.44;;;5.70;88.20
5966;BME280;3009;43.224;27.976;2023-03-01T11:49:47;101202.91;;;5.29;88.37
5966;BME280;3009;43.224;27.976;2023-03-01T11:52:25;101206.34;;;5.03;90.12
5966;BME280;3009;43.224;27.976;2023-03-01T11:55:09;101222.13;;;5.37;89.71
5966;BME280;3009;43.224;27.976;2023-03-01T11:57:51;101206.50;;;5.45;88.74
5966;BME280;3009;43.224;27.976;2023-03-01T12:00:36;101197.16;;;5.38;89.40
5966;BME280;3009;43.224;27.976;2023-03-01T12:03:31;101192.06;;;5.68;87.60
5966;BME280;3009;43.224;27.976;2023-03-01T12:06:27;101186.22;;;5.72;85.69
5966;BME280;3009;43.224;27.976;2023-03-01T12:12:16;101179.84;;;5.40;88.02
5966;BME280;3009;43.224;27.976;2023-03-01T12:15:02;101177.91;;;5.63;86.71
5966;BME280;3009;43.224;27.976;2023-03-01T12:18:16;101186.75;;;5.36;89.56
5966;BME280;3009;43.224;27.976;2023-03-01T12:20:56;101202.47;;;5.38;88.63
5966;BME280;3009;43.224;27.976;2023-03-01T12:23:48;101178.28;;;5.12;89.62
5966;BME280;3009;43.224;27.976;2023-03-01T12:26:31;101187.59;;;5.14;90.32
5966;BME280;3009;43.224;27.976;2023-03-01T12:29:22;101174.38;;;5.20;89.14
5966;BME280;3009;43.224;27.976;2023-03-01T12:32:12;101170.75;;;5.31;88.66
5966;BME280;3009;43.224;27.976;2023-03-01T12:37:49;101173.56;;;4.92;90.70
5966;BME280;3009;43.224;27.976;2023-03-01T12:40:33;101173.38;;;4.99;90.36
5966;BME280;3009;43.224;27.976;2023-03-01T12:43:14;101180.44;;;4.88;90.44
5966;BME280;3009;43.224;27.976;2023-03-01T12:46:04;101184.03;;;5.04;90.42
5966;BME280;3009;43.224;27.976;2023-03-01T12:48:43;101183.00;;;5.32;89.31
5966;BME280;3009;43.224;27.976;2023-03-01T12:51:20;101186.78;;;5.09;89.26
5966;BME280;3009;43.224;27.976;2023-03-01T12:53:52;101175.56;;;5.07;89.21
5966;BME280;3009;43.224;27.976;2023-03-01T12:56:24;101177.03;;;4.92;90.02
5966;BME280;3009;43.224;27.976;2023-03-01T12:59:02;101167.81;;;5.00;89.86
5966;BME280;3009;43.224;27.976;2023-03-01T13:01:39;101178.94;;;4.97;90.27
5966;BME280;3009;43.224;27.976;2023-03-01T13:04:25;101179.47;;;4.99;90.21
5966;BME280;3009;43.224;27.976;2023-03-01T13:07:08;101171.41;;;4.89;90.68
5966;BME280;3009;43.224;27.976;2023-03-01T13:09:41;101177.97;;;5.08;90.07
5966;BME280;3009;43.224;27.976;2023-03-01T13:12:43;101173.88;;;5.23;89.07
5966;BME280;3009;43.224;27.976;2023-03-01T13:15:25;101178.47;;;5.32;88.85
5966;BME280;3009;43.224;27.976;2023-03-01T13:17:55;101176.66;;;5.38;88.41
5966;BME280;3009;43.224;27.976;2023-03-01T13:20:29;101176.63;;;5.33;88.52
5966;BME280;3009;43.224;27.976;2023-03-01T13:23:09;101180.09;;;5.06;90.40
5966;BME280;3009;43.224;27.976;2023-03-01T13:26:04;101177.88;;;4.98;90.08
5966;BME280;3009;43.224;27.976;2023-03-01T13:28:51;101181.13;;;4.78;90.38
5966;BME280;3009;43.224;27.976;2023-03-01T13:34:45;101172.31;;;5.00;90.17
5966;BME280;3009;43.224;27.976;2023-03-01T13:37:25;101178.03;;;5.13;90.17